createdAt,value
2019-05-23T16:30:50.964Z,24.50
2019-05-23T16:33:20.070Z,24.90
2019-05-23T16:35:52.011Z,24.90
2019-05-23T16:38:26.606Z,24.90
2019-05-23T16:41:01.175Z,24.50
2019-05-23T16:44:08.024Z,24.70
2019-05-23T16:46:55.406Z,25.10
2019-05-23T16:49:28.984Z,24.90
2019-05-23T16:52:00.437Z,24.20
2019-05-23T16:54:36.545Z,23.60
2019-05-23T16:57:28.143Z,23.80
2019-05-23T17:00:22.821Z,24.10
2019-05-23T17:03:00.339Z,24.00
2019-05-23T17:05:53.390Z,23.90
2019-05-23T17:08:32.505Z,24.20
2019-05-23T17:11:23.731Z,24.30
2019-05-23T17:13:53.277Z,24.50
2019-05-23T17:16:31.225Z,24.70
2019-05-23T17:22:10.729Z,24.40
2019-05-23T17:24:53.791Z,24.10
2019-05-23T17:27:39.472Z,24.30
2019-05-23T17:30:15.974Z,24.60
2019-05-23T17:32:48.461Z,24.80
2019-05-23T17:35:19.148Z,25.00
2019-05-23T17:37:53.893Z,25.10
2019-05-23T17:40:25.837Z,24.90
2019-05-23T17:43:01.733Z,24.30
2019-05-23T17:45:37.552Z,24.20
2019-05-23T17:48:08.177Z,24.50
2019-05-23T17:50:50.848Z,24.60
2019-05-23T17:53:22.923Z,24.50
2019-05-23T17:56:26.565Z,24.20
2019-05-23T17:59:00.133Z,23.50
2019-05-23T18:01:29.611Z,23.30
2019-05-23T18:03:59.070Z,23.40
2019-05-23T18:06:29.806Z,23.40
2019-05-23T18:09:15.018Z,23.20
2019-05-23T18:11:44.294Z,22.90
2019-05-23T18:14:19.422Z,22.60
2019-05-23T18:16:50.538Z,22.30
2019-05-23T18:19:20.485Z,22.40
2019-05-23T18:21:49.827Z,22.20
2019-05-23T18:24:27.898Z,22.10
2019-05-23T18:26:57.487Z,22.00
2019-05-23T18:29:39.595Z,21.90
2019-05-23T18:32:10.998Z,21.90
2019-05-23T18:34:43.439Z,21.80
2019-05-23T18:37:15.638Z,21.70
2019-05-23T18:39:50.588Z,21.70
2019-05-23T18:42:38.690Z,21.80
2019-05-23T18:45:14.078Z,21.90
2019-05-23T18:47:44.578Z,21.60
2019-05-23T18:50:13.986Z,21.40
2019-05-23T18:52:45.977Z,21.20
2019-05-23T18:55:17.198Z,21.20
2019-05-23T18:57:57.121Z,21.50
2019-05-23T19:01:00.189Z,21.70
2019-05-23T19:03:33.415Z,21.90
2019-05-23T19:06:11.877Z,22.10
2019-05-23T19:08:44.763Z,22.00
2019-05-23T19:11:20.779Z,22.00
2019-05-23T19:13:45.970Z,22.00
2019-05-23T19:16:31.846Z,22.10
2019-05-23T19:19:02.549Z,21.80
2019-05-23T19:21:36.441Z,21.30
2019-05-23T19:24:05.261Z,21.10
2019-05-23T19:26:34.468Z,20.50
2019-05-23T19:29:12.911Z,20.50
2019-05-23T19:32:11.099Z,20.60
2019-05-23T19:34:45.599Z,20.50
2019-05-23T19:37:22.362Z,20.40
2019-05-23T19:39:59.687Z,20.50
2019-05-23T19:42:40.953Z,20.50
2019-05-23T19:45:12.131Z,20.50
2019-05-23T19:47:46.636Z,20.40
2019-05-23T19:50:15.815Z,20.20
2019-05-23T19:52:48.853Z,20.20
2019-05-23T19:55:24.057Z,20.10
2019-05-23T19:57:53.555Z,20.00
2019-05-23T20:00:25.436Z,20.00
2019-05-23T20:03:05.747Z,19.70
2019-05-23T20:05:42.069Z,19.50
2019-05-23T20:08:13.375Z,19.50
2019-05-23T20:10:41.279Z,19.50
2019-05-23T20:13:13.090Z,19.50
2019-05-23T20:15:47.612Z,19.40
2019-05-23T20:18:18.917Z,19.30
2019-05-23T20:20:47.415Z,19.00
2019-05-23T20:23:16.703Z,19.00
2019-05-23T20:25:45.545Z,18.90
2019-05-23T20:28:40.053Z,18.80
2019-05-23T20:31:14.826Z,18.80
2019-05-23T20:33:46.398Z,18.30
2019-05-23T20:36:24.026Z,17.80
2019-05-23T20:38:58.800Z,17.90
2019-05-23T20:41:31.389Z,18.00
2019-05-23T20:44:06.194Z,17.80
2019-05-23T20:46:40.576Z,17.60
2019-05-23T20:49:11.878Z,17.60
2019-05-23T20:51:47.984Z,17.30
2019-05-23T20:54:19.834Z,17.40
2019-05-23T20:56:54.509Z,17.60
2019-05-23T20:59:36.891Z,17.80
2019-05-23T21:02:08.426Z,18.00
2019-05-23T21:04:37.019Z,18.10
2019-05-23T21:07:05.884Z,17.60
2019-05-23T21:09:41.907Z,17.60
2019-05-23T21:12:28.942Z,17.50
2019-05-23T21:14:52.201Z,17.80
2019-05-23T21:17:31.037Z,17.70
2019-05-23T21:20:00.723Z,17.60
2019-05-23T21:22:32.298Z,17.60
2019-05-23T21:25:02.012Z,17.70
2019-05-23T21:27:43.223Z,17.70
2019-05-23T21:30:15.049Z,17.70
2019-05-23T21:32:44.838Z,17.50
2019-05-23T21:35:16.686Z,17.40
2019-05-23T21:37:51.110Z,17.30
2019-05-23T21:40:37.797Z,17.30
2019-05-23T21:43:14.709Z,17.00
2019-05-23T21:45:55.575Z,16.70
2019-05-23T21:48:35.586Z,16.90
2019-05-23T21:51:28.816Z,17.20
2019-05-23T21:54:00.589Z,17.40
2019-05-23T21:56:32.404Z,17.50
2019-05-23T21:59:03.741Z,17.30
2019-05-23T22:01:39.123Z,16.90
2019-05-23T22:04:26.229Z,17.10
2019-05-23T22:06:56.845Z,17.40
2019-05-23T22:09:27.618Z,17.60
2019-05-23T22:11:59.272Z,17.70
2019-05-23T22:14:56.349Z,17.80
2019-05-23T22:17:43.816Z,18.00
2019-05-23T22:20:15.611Z,17.70
2019-05-23T22:22:50.140Z,17.50
2019-05-23T22:25:53.747Z,17.20
2019-05-23T22:28:35.333Z,17.10
2019-05-23T22:31:08.450Z,17.10
2019-05-23T22:34:07.256Z,17.10
2019-05-23T22:36:43.112Z,17.10
2019-05-23T22:39:19.303Z,17.20
2019-05-23T22:41:51.151Z,17.00
2019-05-23T22:44:29.420Z,16.80
2019-05-23T22:46:58.154Z,16.70
2019-05-23T22:49:29.415Z,16.40
2019-05-23T22:52:06.324Z,16.30
2019-05-23T22:54:37.982Z,16.10
2019-05-23T22:57:12.632Z,16.10
2019-05-23T22:59:47.287Z,16.30
2019-05-23T23:02:18.699Z,16.50
2019-05-23T23:04:47.624Z,16.20
2019-05-23T23:07:20.131Z,16.00
2019-05-23T23:09:59.477Z,15.50
2019-05-23T23:12:28.218Z,15.40
2019-05-23T23:15:00.960Z,15.30
2019-05-23T23:17:44.867Z,15.40
2019-05-23T23:20:16.247Z,15.60
2019-05-23T23:22:49.221Z,15.70
2019-05-23T23:25:17.962Z,15.70
2019-05-23T23:27:46.701Z,15.50
2019-05-23T23:30:23.943Z,15.20
2019-05-23T23:32:52.511Z,15.30
2019-05-23T23:35:30.182Z,15.30
2019-05-23T23:38:01.020Z,15.20
2019-05-23T23:40:32.888Z,15.20
2019-05-23T23:43:04.653Z,15.20
2019-05-23T23:45:57.255Z,15.30
2019-05-23T23:48:47.014Z,15.30
2019-05-23T23:51:37.056Z,15.10
2019-05-23T23:54:47.835Z,15.00
2019-05-23T23:57:37.806Z,14.50
